Martin Challenger — WDB2346 — position and weather

sailwx.info

Track history (hours):
 
Tides and Currents Weather Stations Pressure Air Temp Water Temp Dewpoint Dewpoint Depression Visibility Wind Speed Wind Dir Waves Ship Positions

Martin Challenger

Owner: MARTIN OPERATING PARTNERSHIP LP, VIDOR, TX. More information available from US FCC via Universal Licensing System and Coast Guard Vessel Documentation Center.

Last reported at 2016-Jul-27 15:11 UTC. Time now 2016-Jul-27 19:13 UTC.
Position N 29°21' W 094°49'.

Length 20 m.

MMSI: 366874920.

Date/timePositionNaut miles runAvg speedWind from/ knotsBaromVisibWave heightAir tempDewpointWater temp
2016-Jul-27 15:11N 29°21' W 094°49'2 0.1
2016-Jul-26 22:14N 29°22' W 094°51'  
2016-Jul-23 20:30N 29°24' W 094°49'6 5.8
2016-Jul-23 19:33N 29°30' W 094°52'6 5.6
2016-Jul-23 18:33N 29°34' W 094°56'6 5.5
2016-Jul-23 17:32N 29°39' W 094°58'5 5.1
2016-Jul-23 16:33N 29°44' W 095°01'2 1.5
2016-Jul-23 15:33N 29°44' W 095°03'0 0.0
2016-Jul-23 14:33N 29°44' W 095°03'0 0.0
2016-Jul-23 13:33N 29°44' W 095°03'0 0.0
2016-Jul-23 12:33N 29°44' W 095°03'0 0.0
2016-Jul-23 11:33N 29°44' W 095°03'0 0.0
2016-Jul-23 10:33N 29°44' W 095°03'0 0.0
2016-Jul-23 09:33N 29°44' W 095°03'0 0.0
2016-Jul-23 08:33N 29°44' W 095°03'0 0.0
2016-Jul-23 07:33N 29°44' W 095°03'0 0.0
2016-Jul-23 06:33N 29°44' W 095°03'0 0.0
2016-Jul-23 04:34N 29°44' W 095°03'0 0.0
2016-Jul-23 03:33N 29°44' W 095°03'0 0.0
2016-Jul-23 02:33N 29°44' W 095°03'0 0.0
2016-Jul-23 01:33N 29°44' W 095°03'0 0.0
2016-Jul-23 00:33N 29°44' W 095°03'0 0.0
2016-Jul-22 23:33N 29°44' W 095°03'0 0.0
2016-Jul-22 22:33N 29°44' W 095°03'0 0.0
2016-Jul-22 21:33N 29°44' W 095°03'0 0.0
2016-Jul-22 20:14N 29°44' W 095°03'10 3.7
2016-Jul-22 17:32N 29°36' W 094°57'5 4.6
2016-Jul-22 16:32N 29°32' W 094°54'  
2016-Jul-19 03:33N 29°23' W 094°53'4 0.4
2016-Jul-18 17:29N 29°21' W 094°49'1 0.1
2016-Jul-18 13:25N 29°21' W 094°49'  
Track history (hours):
 
Tides and Currents Weather Stations Pressure Air Temp Water Temp Dewpoint Dewpoint Depression Visibility Wind Speed Wind Dir Waves Ship Positions

Martin Challenger

Owner: MARTIN OPERATING PARTNERSHIP LP, VIDOR, TX. More information available from US FCC via Universal Licensing System and Coast Guard Vessel Documentation Center.

Last reported at 2016-Jul-27 15:11 UTC. Time now 2016-Jul-27 19:13 UTC.
Position N 29°21' W 094°49'.

Length 20 m.

MMSI: 366874920.

Date/timePositionNaut miles runAvg speedWind from/ knotsBaromVisibWave heightAir tempDewpointWater temp
2016-Jul-27 15:11N 29°21' W 094°49'2 0.1
2016-Jul-26 22:14N 29°22' W 094°51'  
2016-Jul-23 20:30N 29°24' W 094°49'6 5.8
2016-Jul-23 19:33N 29°30' W 094°52'6 5.6
2016-Jul-23 18:33N 29°34' W 094°56'6 5.5
2016-Jul-23 17:32N 29°39' W 094°58'5 5.1
2016-Jul-23 16:33N 29°44' W 095°01'2 1.5
2016-Jul-23 15:33N 29°44' W 095°03'0 0.0
2016-Jul-23 14:33N 29°44' W 095°03'0 0.0
2016-Jul-23 13:33N 29°44' W 095°03'0 0.0
2016-Jul-23 12:33N 29°44' W 095°03'0 0.0
2016-Jul-23 11:33N 29°44' W 095°03'0 0.0
2016-Jul-23 10:33N 29°44' W 095°03'0 0.0
2016-Jul-23 09:33N 29°44' W 095°03'0 0.0
2016-Jul-23 08:33N 29°44' W 095°03'0 0.0
2016-Jul-23 07:33N 29°44' W 095°03'0 0.0
2016-Jul-23 06:33N 29°44' W 095°03'0 0.0
2016-Jul-23 04:34N 29°44' W 095°03'0 0.0
2016-Jul-23 03:33N 29°44' W 095°03'0 0.0
2016-Jul-23 02:33N 29°44' W 095°03'0 0.0
2016-Jul-23 01:33N 29°44' W 095°03'0 0.0
2016-Jul-23 00:33N 29°44' W 095°03'0 0.0
2016-Jul-22 23:33N 29°44' W 095°03'0 0.0
2016-Jul-22 22:33N 29°44' W 095°03'0 0.0
2016-Jul-22 21:33N 29°44' W 095°03'0 0.0
2016-Jul-22 20:14N 29°44' W 095°03'10 3.7
2016-Jul-22 17:32N 29°36' W 094°57'5 4.6
2016-Jul-22 16:32N 29°32' W 094°54'  
2016-Jul-19 03:33N 29°23' W 094°53'4 0.4
2016-Jul-18 17:29N 29°21' W 094°49'1 0.1
2016-Jul-18 13:25N 29°21' W 094°49'  

Dump ship's entire track history